BCS41I EGKK-EDDP
Flight info
| Callsign | BCS41I |
|---|---|
| Flight time | N/A |
| Altitude | 37000 |
| Route | FRANE M604 GASBA M197 REDFA DCT TACHA DCT NORTA/N0408F230 DCT ADMOS T959 KOJEC KOJEC1V |
| Aircraft | B738/M-SDE2E3FGHIRWXY/LB1 |
Departure
| Time | 2026-05-04 08:14 |
|---|---|
| Airport | London Gatwick Airport (EGKK) |
Arrival
| Time | N/A |
|---|---|
| Airport | Leipzig/Halle Airport (EDDP) |
| Time | Latitude | Longitude | Altitude | Speed | Heading |
|---|---|---|---|---|---|
| 2026-05-04 07:45 | 51.15267 | -0.18894 | 208 ft | 0 kts | 257° |
| 2026-05-04 08:02 | 51.15311 | -0.18751 | 210 ft | 2 kts | 178° |
| 2026-05-04 08:02 | 51.15322 | -0.18753 | 213 ft | 2 kts | 168° |
| 2026-05-04 08:02 | 51.15333 | -0.18757 | 215 ft | 2 kts | 166° |
| 2026-05-04 08:03 | 51.15336 | -0.18759 | 215 ft | 0 kts | 166° |
| 2026-05-04 08:05 | 51.15335 | -0.18758 | 215 ft | 1 kts | 166° |
| 2026-05-04 08:05 | 51.15288 | -0.18739 | 210 ft | 12 kts | 166° |
| 2026-05-04 08:05 | 51.15204 | -0.18711 | 207 ft | 13 kts | 173° |
| 2026-05-04 08:06 | 51.15149 | -0.18626 | 204 ft | 13 kts | 90° |
| 2026-05-04 08:06 | 51.15165 | -0.18492 | 210 ft | 12 kts | 77° |
| 2026-05-04 08:06 | 51.15186 | -0.18345 | 210 ft | 15 kts | 77° |
| 2026-05-04 08:06 | 51.15201 | -0.18188 | 210 ft | 14 kts | 79° |
| 2026-05-04 08:08 | 51.15245 | -0.17253 | 204 ft | 10 kts | 84° |
| 2026-05-04 08:08 | 51.15258 | -0.17149 | 213 ft | 9 kts | 78° |
| 2026-05-04 08:10 | 51.15238 | -0.16816 | 207 ft | 0 kts | 166° |
| 2026-05-04 08:12 | 51.15222 | -0.16809 | 205 ft | 8 kts | 166° |
| 2026-05-04 08:12 | 51.15156 | -0.16795 | 205 ft | 10 kts | 189° |
| 2026-05-04 08:13 | 51.15110 | -0.16887 | 211 ft | 10 kts | 255° |
| 2026-05-04 08:13 | 51.15094 | -0.16998 | 209 ft | 10 kts | 259° |
| 2026-05-04 08:13 | 51.15037 | -0.17423 | 210 ft | 85 kts | 257° |
| 2026-05-04 08:13 | 51.14848 | -0.18807 | 206 ft | 168 kts | 258° |
| 2026-05-04 08:14 | 51.14556 | -0.20893 | 616 ft | 204 kts | 259° |
| 2026-05-04 08:14 | 51.14278 | -0.23071 | 1439 ft | 197 kts | 259° |
| 2026-05-04 08:14 | 51.13996 | -0.25248 | 1556 ft | 202 kts | 259° |
| 2026-05-04 08:16 | 51.19702 | -0.27746 | 3981 ft | 234 kts | 79° |
| 2026-05-04 08:16 | 51.19946 | -0.25194 | 3993 ft | 233 kts | 82° |
| 2026-05-04 08:16 | 51.20165 | -0.22645 | 3996 ft | 232 kts | 82° |
| 2026-05-04 08:17 | 51.20389 | -0.20101 | 3997 ft | 234 kts | 80° |
| 2026-05-04 08:17 | 51.20710 | -0.17410 | 4019 ft | 259 kts | 78° |
| 2026-05-04 08:17 | 51.21082 | -0.14569 | 4035 ft | 265 kts | 78° |
| 2026-05-04 08:17 | 51.21467 | -0.11663 | 4610 ft | 270 kts | 78° |
| 2026-05-04 08:19 | 51.24157 | 0.08942 | 4999 ft | 273 kts | 78° |
| 2026-05-04 08:19 | 51.24539 | 0.11905 | 5003 ft | 273 kts | 78° |
| 2026-05-04 08:20 | 51.24920 | 0.14869 | 4994 ft | 272 kts | 78° |
| 2026-05-04 08:20 | 51.25299 | 0.17822 | 4994 ft | 271 kts | 78° |
| 2026-05-04 08:20 | 51.25538 | 0.20799 | 4990 ft | 270 kts | 92° |
| 2026-05-04 08:20 | 51.25354 | 0.23770 | 5008 ft | 269 kts | 97° |
| 2026-05-04 08:21 | 51.25124 | 0.26727 | 4991 ft | 269 kts | 97° |
| 2026-05-04 08:21 | 51.24901 | 0.29691 | 4991 ft | 268 kts | 97° |
| 2026-05-04 08:21 | 51.24687 | 0.32648 | 4991 ft | 268 kts | 97° |
| 2026-05-04 08:21 | 51.24479 | 0.35603 | 4995 ft | 268 kts | 96° |
| 2026-05-04 08:22 | 51.24275 | 0.38559 | 5001 ft | 268 kts | 96° |
| 2026-05-04 08:22 | 51.24075 | 0.41512 | 4997 ft | 268 kts | 96° |
| 2026-05-04 08:24 | 51.26866 | 0.59395 | 5003 ft | 268 kts | 9° |
| 2026-05-04 08:24 | 51.28718 | 0.59670 | 5008 ft | 268 kts | 3° |
| 2026-05-04 08:24 | 51.30584 | 0.59823 | 5001 ft | 269 kts | 4° |
| 2026-05-04 08:24 | 51.32443 | 0.60365 | 5318 ft | 275 kts | 14° |
| 2026-05-04 08:25 | 51.34318 | 0.61130 | 5896 ft | 282 kts | 14° |
| 2026-05-04 08:25 | 51.36224 | 0.61896 | 5982 ft | 282 kts | 13° |
| 2026-05-04 08:25 | 51.38117 | 0.62635 | 5990 ft | 278 kts | 13° |
| 2026-05-04 08:25 | 51.39994 | 0.63357 | 6068 ft | 279 kts | 13° |
| 2026-05-04 08:26 | 51.41894 | 0.64074 | 6696 ft | 283 kts | 12° |
| 2026-05-04 08:27 | 51.56334 | 0.69515 | 11148 ft | 361 kts | 12° |
| 2026-05-04 08:28 | 51.58809 | 0.70453 | 11797 ft | 368 kts | 12° |
| 2026-05-04 08:28 | 51.60500 | 0.71095 | 12325 ft | 371 kts | 12° |